sensor_id;sensor_type;location;lat;lon;timestamp;temperature;humidity
76787;DHT22;65739;51.482;5.702;2023-04-29T00:00:04;10.30;99.90
76787;DHT22;65739;51.482;5.702;2023-04-29T00:02:31;10.20;99.90
76787;DHT22;65739;51.482;5.702;2023-04-29T00:04:57;10.20;99.90
76787;DHT22;65739;51.482;5.702;2023-04-29T00:07:22;10.20;99.90
76787;DHT22;65739;51.482;5.702;2023-04-29T00:09:48;10.20;99.90
76787;DHT22;65739;51.482;5.702;2023-04-29T00:12:13;10.10;99.90
76787;DHT22;65739;51.482;5.702;2023-04-29T00:14:39;10.10;99.90
76787;DHT22;65739;51.482;5.702;2023-04-29T00:17:05;10.10;99.90
76787;DHT22;65739;51.482;5.702;2023-04-29T00:19:30;10.10;99.90
76787;DHT22;65739;51.482;5.702;2023-04-29T00:21:56;10.00;99.90
76787;DHT22;65739;51.482;5.702;2023-04-29T00:24:21;10.00;99.90
76787;DHT22;65739;51.482;5.702;2023-04-29T00:26:47;10.00;99.90
76787;DHT22;65739;51.482;5.702;2023-04-29T00:29:13;9.90;99.90
76787;DHT22;65739;51.482;5.702;2023-04-29T00:31:38;10.00;99.90
76787;DHT22;65739;51.482;5.702;2023-04-29T00:34:04;9.90;99.90
76787;DHT22;65739;51.482;5.702;2023-04-29T00:36:29;9.90;99.90
76787;DHT22;65739;51.482;5.702;2023-04-29T00:38:56;9.90;99.90
76787;DHT22;65739;51.482;5.702;2023-04-29T00:41:23;9.90;99.90
76787;DHT22;65739;51.482;5.702;2023-04-29T00:43:48;9.90;99.90
76787;DHT22;65739;51.482;5.702;2023-04-29T00:46:14;9.90;99.90
76787;DHT22;65739;51.482;5.702;2023-04-29T00:48:40;9.90;99.90
76787;DHT22;65739;51.482;5.702;2023-04-29T00:51:06;9.80;99.90
76787;DHT22;65739;51.482;5.702;2023-04-29T00:53:33;9.70;99.90
76787;DHT22;65739;51.482;5.702;2023-04-29T00:56:00;9.70;99.90
76787;DHT22;65739;51.482;5.702;2023-04-29T00:58:28;9.70;99.90
76787;DHT22;65739;51.482;5.702;2023-04-29T01:00:59;9.60;99.90
76787;DHT22;65739;51.482;5.702;2023-04-29T01:03:27;9.60;99.90
76787;DHT22;65739;51.482;5.702;2023-04-29T01:06:01;9.60;99.90
76787;DHT22;65739;51.482;5.702;2023-04-29T01:08:56;9.60;99.90
76787;DHT22;65739;51.482;5.702;2023-04-29T01:11:33;9.50;99.90
76787;DHT22;65739;51.482;5.702;2023-04-29T01:13:59;9.50;99.90
76787;DHT22;65739;51.482;5.702;2023-04-29T01:16:33;9.50;99.90
76787;DHT22;65739;51.482;5.702;2023-04-29T01:19:05;9.50;99.90
76787;DHT22;65739;51.482;5.702;2023-04-29T01:21:45;9.50;99.90
76787;DHT22;65739;51.482;5.702;2023-04-29T01:24:13;9.50;99.90
76787;DHT22;65739;51.482;5.702;2023-04-29T01:26:40;9.50;99.90
76787;DHT22;65739;51.482;5.702;2023-04-29T01:29:37;9.50;99.90
76787;DHT22;65739;51.482;5.702;2023-04-29T01:32:05;9.50;99.90
76787;DHT22;65739;51.482;5.702;2023-04-29T01:37:13;9.50;99.90
76787;DHT22;65739;51.482;5.702;2023-04-29T01:39:56;9.50;99.90
76787;DHT22;65739;51.482;5.702;2023-04-29T01:42:54;9.40;99.90
76787;DHT22;65739;51.482;5.702;2023-04-29T01:45:23;9.40;99.90
76787;DHT22;65739;51.482;5.702;2023-04-29T01:47:52;9.40;99.90
76787;DHT22;65739;51.482;5.702;2023-04-29T01:50:20;9.40;99.90
76787;DHT22;65739;51.482;5.702;2023-04-29T01:52:45;9.40;99.90
76787;DHT22;65739;51.482;5.702;2023-04-29T01:55:11;9.40;99.90
76787;DHT22;65739;51.482;5.702;2023-04-29T01:57:36;9.30;99.90
76787;DHT22;65739;51.482;5.702;2023-04-29T02:00:02;9.30;99.90
76787;DHT22;65739;51.482;5.702;2023-04-29T02:02:29;9.30;99.90
76787;DHT22;65739;51.482;5.702;2023-04-29T02:04:54;9.30;99.90
76787;DHT22;65739;51.482;5.702;2023-04-29T02:07:20;9.40;99.90
76787;DHT22;65739;51.482;5.702;2023-04-29T02:09:46;9.40;99.90
76787;DHT22;65739;51.482;5.702;2023-04-29T02:12:11;9.40;99.90
76787;DHT22;65739;51.482;5.702;2023-04-29T02:14:37;9.40;99.90
76787;DHT22;65739;51.482;5.702;2023-04-29T02:17:02;9.30;99.90
76787;DHT22;65739;51.482;5.702;2023-04-29T02:19:28;9.30;99.90
76787;DHT22;65739;51.482;5.702;2023-04-29T02:21:53;9.40;99.90
76787;DHT22;65739;51.482;5.702;2023-04-29T02:24:19;9.40;99.90
76787;DHT22;65739;51.482;5.702;2023-04-29T02:26:45;9.40;99.90
76787;DHT22;65739;51.482;5.702;2023-04-29T02:29:10;9.40;99.90
76787;DHT22;65739;51.482;5.702;2023-04-29T02:31:36;9.40;99.90
76787;DHT22;65739;51.482;5.702;2023-04-29T02:34:02;9.40;99.90
76787;DHT22;65739;51.482;5.702;2023-04-29T02:36:29;9.40;99.90
76787;DHT22;65739;51.482;5.702;2023-04-29T02:38:54;9.30;99.90
76787;DHT22;65739;51.482;5.702;2023-04-29T02:41:21;9.30;99.90
76787;DHT22;65739;51.482;5.702;2023-04-29T02:43:46;9.30;99.90
76787;DHT22;65739;51.482;5.702;2023-04-29T02:46:13;9.30;99.90
76787;DHT22;65739;51.482;5.702;2023-04-29T02:48:39;9.30;99.90
76787;DHT22;65739;51.482;5.702;2023-04-29T02:51:05;9.30;99.90
76787;DHT22;65739;51.482;5.702;2023-04-29T02:53:31;9.30;99.90
76787;DHT22;65739;51.482;5.702;2023-04-29T02:55:56;9.30;99.90
76787;DHT22;65739;51.482;5.702;2023-04-29T02:58:22;9.30;99.90
76787;DHT22;65739;51.482;5.702;2023-04-29T03:00:48;9.30;99.90
76787;DHT22;65739;51.482;5.702;2023-04-29T03:03:13;9.30;99.90
76787;DHT22;65739;51.482;5.702;2023-04-29T03:05:39;9.30;99.90
76787;DHT22;65739;51.482;5.702;2023-04-29T03:08:05;9.30;99.90
76787;DHT22;65739;51.482;5.702;2023-04-29T03:10:31;9.30;99.90
76787;DHT22;65739;51.482;5.702;2023-04-29T03:12:57;9.20;99.90
76787;DHT22;65739;51.482;5.702;2023-04-29T03:15:23;9.30;99.90
76787;DHT22;65739;51.482;5.702;2023-04-29T03:17:48;9.20;99.90
76787;DHT22;65739;51.482;5.702;2023-04-29T03:20:14;9.30;99.90
76787;DHT22;65739;51.482;5.702;2023-04-29T03:22:39;9.20;99.90
76787;DHT22;65739;51.482;5.702;2023-04-29T03:25:05;9.30;99.90
76787;DHT22;65739;51.482;5.702;2023-04-29T03:27:31;9.30;99.90
76787;DHT22;65739;51.482;5.702;2023-04-29T03:29:56;9.30;99.90
76787;DHT22;65739;51.482;5.702;2023-04-29T03:32:22;9.30;99.90
76787;DHT22;65739;51.482;5.702;2023-04-29T03:34:48;9.30;99.90
76787;DHT22;65739;51.482;5.702;2023-04-29T03:37:14;9.30;99.90
76787;DHT22;65739;51.482;5.702;2023-04-29T03:39:40;9.30;99.90
76787;DHT22;65739;51.482;5.702;2023-04-29T03:42:06;9.30;99.90
76787;DHT22;65739;51.482;5.702;2023-04-29T03:44:32;9.30;99.90
76787;DHT22;65739;51.482;5.702;2023-04-29T03:46:58;9.30;99.90
76787;DHT22;65739;51.482;5.702;2023-04-29T03:49:24;9.30;99.90
76787;DHT22;65739;51.482;5.702;2023-04-29T03:51:50;9.20;99.90
76787;DHT22;65739;51.482;5.702;2023-04-29T03:54:16;9.20;99.90
76787;DHT22;65739;51.482;5.702;2023-04-29T03:56:41;9.20;99.90
76787;DHT22;65739;51.482;5.702;2023-04-29T03:59:07;9.20;99.90
76787;DHT22;65739;51.482;5.702;2023-04-29T04:01:33;9.20;99.90
76787;DHT22;65739;51.482;5.702;2023-04-29T04:03:59;9.20;99.90
76787;DHT22;65739;51.482;5.702;2023-04-29T04:06:24;9.20;99.90
76787;DHT22;65739;51.482;5.702;2023-04-29T04:08:50;9.10;99.90
76787;DHT22;65739;51.482;5.702;2023-04-29T04:11:16;9.20;99.90
76787;DHT22;65739;51.482;5.702;2023-04-29T04:13:41;9.10;99.90
76787;DHT22;65739;51.482;5.702;2023-04-29T04:16:10;9.10;99.90
76787;DHT22;65739;51.482;5.702;2023-04-29T04:18:37;9.10;99.90
76787;DHT22;65739;51.482;5.702;2023-04-29T04:21:10;9.10;99.90
76787;DHT22;65739;51.482;5.702;2023-04-29T04:23:36;9.20;99.90
76787;DHT22;65739;51.482;5.702;2023-04-29T04:26:04;9.20;99.90
76787;DHT22;65739;51.482;5.702;2023-04-29T04:28:30;9.10;99.90
76787;DHT22;65739;51.482;5.702;2023-04-29T04:30:55;9.10;99.90
76787;DHT22;65739;51.482;5.702;2023-04-29T04:33:21;9.10;99.90
76787;DHT22;65739;51.482;5.702;2023-04-29T04:35:47;9.10;99.90
76787;DHT22;65739;51.482;5.702;2023-04-29T04:38:12;9.10;99.90
76787;DHT22;65739;51.482;5.702;2023-04-29T04:40:42;9.10;99.90
76787;DHT22;65739;51.482;5.702;2023-04-29T04:43:08;9.10;99.90
76787;DHT22;65739;51.482;5.702;2023-04-29T04:45:33;9.10;99.90
76787;DHT22;65739;51.482;5.702;2023-04-29T04:47:59;9.10;99.90
76787;DHT22;65739;51.482;5.702;2023-04-29T04:50:28;9.10;99.90
76787;DHT22;65739;51.482;5.702;2023-04-29T04:52:55;9.20;99.90
76787;DHT22;65739;51.482;5.702;2023-04-29T04:55:21;9.10;99.90
76787;DHT22;65739;51.482;5.702;2023-04-29T04:57:47;9.20;99.90
76787;DHT22;65739;51.482;5.702;2023-04-29T05:00:13;9.10;99.90
76787;DHT22;65739;51.482;5.702;2023-04-29T05:02:38;9.20;99.90
76787;DHT22;65739;51.482;5.702;2023-04-29T05:05:04;9.20;99.90
76787;DHT22;65739;51.482;5.702;2023-04-29T05:07:31;9.20;99.90
76787;DHT22;65739;51.482;5.702;2023-04-29T05:09:56;9.20;99.90
76787;DHT22;65739;51.482;5.702;2023-04-29T05:12:22;9.20;99.90
76787;DHT22;65739;51.482;5.702;2023-04-29T05:14:52;9.20;99.90
76787;DHT22;65739;51.482;5.702;2023-04-29T05:17:17;9.20;99.90
76787;DHT22;65739;51.482;5.702;2023-04-29T05:19:43;9.20;99.90
76787;DHT22;65739;51.482;5.702;2023-04-29T05:22:08;9.20;99.90
76787;DHT22;65739;51.482;5.702;2023-04-29T05:24:34;9.20;99.90
76787;DHT22;65739;51.482;5.702;2023-04-29T05:26:59;9.30;99.90
76787;DHT22;65739;51.482;5.702;2023-04-29T05:29:25;9.30;99.90
76787;DHT22;65739;51.482;5.702;2023-04-29T05:31:51;9.20;99.90
76787;DHT22;65739;51.482;5.702;2023-04-29T05:34:17;9.30;99.90
76787;DHT22;65739;51.482;5.702;2023-04-29T05:36:42;9.30;99.90
76787;DHT22;65739;51.482;5.702;2023-04-29T05:39:08;9.30;99.90
76787;DHT22;65739;51.482;5.702;2023-04-29T05:41:34;9.30;99.90
76787;DHT22;65739;51.482;5.702;2023-04-29T05:43:59;9.30;99.90
76787;DHT22;65739;51.482;5.702;2023-04-29T05:46:25;9.30;99.90
76787;DHT22;65739;51.482;5.702;2023-04-29T05:48:50;9.30;99.90
76787;DHT22;65739;51.482;5.702;2023-04-29T05:51:16;9.40;99.90
76787;DHT22;65739;51.482;5.702;2023-04-29T05:53:41;9.30;99.90
76787;DHT22;65739;51.482;5.702;2023-04-29T05:56:07;9.30;99.90
76787;DHT22;65739;51.482;5.702;2023-04-29T05:58:36;9.30;99.90
76787;DHT22;65739;51.482;5.702;2023-04-29T06:01:01;9.30;99.90
76787;DHT22;65739;51.482;5.702;2023-04-29T06:03:27;9.30;99.90
76787;DHT22;65739;51.482;5.702;2023-04-29T06:05:53;9.30;99.90
76787;DHT22;65739;51.482;5.702;2023-04-29T06:08:19;9.40;99.90
76787;DHT22;65739;51.482;5.702;2023-04-29T06:10:44;9.40;99.90
76787;DHT22;65739;51.482;5.702;2023-04-29T06:13:10;9.40;99.90
76787;DHT22;65739;51.482;5.702;2023-04-29T06:15:36;9.50;99.90
76787;DHT22;65739;51.482;5.702;2023-04-29T06:18:02;9.40;99.90
76787;DHT22;65739;51.482;5.702;2023-04-29T06:20:27;9.50;99.90
76787;DHT22;65739;51.482;5.702;2023-04-29T06:22:53;9.40;99.90
76787;DHT22;65739;51.482;5.702;2023-04-29T06:25:19;9.40;99.90
76787;DHT22;65739;51.482;5.702;2023-04-29T06:27:44;9.40;99.90
76787;DHT22;65739;51.482;5.702;2023-04-29T06:30:10;9.40;99.90
76787;DHT22;65739;51.482;5.702;2023-04-29T06:32:37;9.50;99.90
76787;DHT22;65739;51.482;5.702;2023-04-29T06:35:03;9.50;99.90
76787;DHT22;65739;51.482;5.702;2023-04-29T06:37:29;9.50;99.90
76787;DHT22;65739;51.482;5.702;2023-04-29T06:39:54;9.50;99.90
76787;DHT22;65739;51.482;5.702;2023-04-29T06:42:20;9.50;99.90
76787;DHT22;65739;51.482;5.702;2023-04-29T06:44:45;9.50;99.90
76787;DHT22;65739;51.482;5.702;2023-04-29T06:47:11;9.50;99.90
76787;DHT22;65739;51.482;5.702;2023-04-29T06:49:36;9.50;99.90
76787;DHT22;65739;51.482;5.702;2023-04-29T06:52:02;9.50;99.90
76787;DHT22;65739;51.482;5.702;2023-04-29T06:54:28;9.60;99.90
76787;DHT22;65739;51.482;5.702;2023-04-29T06:56:53;9.70;99.90
76787;DHT22;65739;51.482;5.702;2023-04-29T06:59:19;9.70;99.90
76787;DHT22;65739;51.482;5.702;2023-04-29T07:01:44;9.80;99.90
76787;DHT22;65739;51.482;5.702;2023-04-29T07:04:10;9.90;99.90
76787;DHT22;65739;51.482;5.702;2023-04-29T07:06:36;10.00;99.90
76787;DHT22;65739;51.482;5.702;2023-04-29T07:09:01;10.20;99.90
76787;DHT22;65739;51.482;5.702;2023-04-29T07:11:27;10.30;99.90
76787;DHT22;65739;51.482;5.702;2023-04-29T07:13:53;10.50;99.90
76787;DHT22;65739;51.482;5.702;2023-04-29T07:16:19;10.50;99.90
76787;DHT22;65739;51.482;5.702;2023-04-29T07:18:48;10.60;99.90
76787;DHT22;65739;51.482;5.702;2023-04-29T07:21:14;10.50;99.90
76787;DHT22;65739;51.482;5.702;2023-04-29T07:23:40;10.60;99.90
76787;DHT22;65739;51.482;5.702;2023-04-29T07:26:10;10.60;99.90
76787;DHT22;65739;51.482;5.702;2023-04-29T07:28:35;10.60;99.90
76787;DHT22;65739;51.482;5.702;2023-04-29T07:31:01;10.70;99.90
76787;DHT22;65739;51.482;5.702;2023-04-29T07:33:27;10.90;99.90
76787;DHT22;65739;51.482;5.702;2023-04-29T07:35:52;10.90;99.90
76787;DHT22;65739;51.482;5.702;2023-04-29T07:38:18;11.00;99.90
76787;DHT22;65739;51.482;5.702;2023-04-29T07:40:45;11.00;99.90
76787;DHT22;65739;51.482;5.702;2023-04-29T07:43:11;11.20;99.90
76787;DHT22;65739;51.482;5.702;2023-04-29T07:45:37;11.30;99.90
76787;DHT22;65739;51.482;5.702;2023-04-29T07:48:04;11.40;99.90
76787;DHT22;65739;51.482;5.702;2023-04-29T07:50:32;11.40;99.90
76787;DHT22;65739;51.482;5.702;2023-04-29T07:52:58;11.50;99.90
76787;DHT22;65739;51.482;5.702;2023-04-29T07:55:26;11.70;99.90
76787;DHT22;65739;51.482;5.702;2023-04-29T07:57:51;11.90;99.90
76787;DHT22;65739;51.482;5.702;2023-04-29T08:00:17;11.80;99.90
76787;DHT22;65739;51.482;5.702;2023-04-29T08:02:43;11.90;99.90
76787;DHT22;65739;51.482;5.702;2023-04-29T08:05:09;11.80;99.90
76787;DHT22;65739;51.482;5.702;2023-04-29T08:07:35;11.90;99.90
76787;DHT22;65739;51.482;5.702;2023-04-29T08:10:00;12.00;99.90
76787;DHT22;65739;51.482;5.702;2023-04-29T08:12:26;12.10;99.90
76787;DHT22;65739;51.482;5.702;2023-04-29T08:14:51;11.80;99.90
76787;DHT22;65739;51.482;5.702;2023-04-29T08:17:17;11.70;99.90
76787;DHT22;65739;51.482;5.702;2023-04-29T08:19:42;11.60;99.90
76787;DHT22;65739;51.482;5.702;2023-04-29T08:22:08;11.60;99.90
76787;DHT22;65739;51.482;5.702;2023-04-29T08:24:36;11.80;99.90
76787;DHT22;65739;51.482;5.702;2023-04-29T08:27:02;11.90;99.90
76787;DHT22;65739;51.482;5.702;2023-04-29T08:29:30;11.90;99.90
76787;DHT22;65739;51.482;5.702;2023-04-29T08:31:57;12.00;99.90
76787;DHT22;65739;51.482;5.702;2023-04-29T08:34:22;12.10;99.90
76787;DHT22;65739;51.482;5.702;2023-04-29T08:36:48;12.30;99.90
76787;DHT22;65739;51.482;5.702;2023-04-29T08:39:13;12.50;99.90
76787;DHT22;65739;51.482;5.702;2023-04-29T08:41:39;12.40;99.90
76787;DHT22;65739;51.482;5.702;2023-04-29T08:44:04;12.50;99.90
76787;DHT22;65739;51.482;5.702;2023-04-29T08:46:30;12.50;99.90
76787;DHT22;65739;51.482;5.702;2023-04-29T08:48:56;12.60;99.90
76787;DHT22;65739;51.482;5.702;2023-04-29T08:51:22;12.70;99.90
76787;DHT22;65739;51.482;5.702;2023-04-29T08:53:48;12.80;99.90
76787;DHT22;65739;51.482;5.702;2023-04-29T08:56:16;12.80;99.90
76787;DHT22;65739;51.482;5.702;2023-04-29T08:58:44;12.90;99.90
76787;DHT22;65739;51.482;5.702;2023-04-29T09:01:10;13.10;99.90
76787;DHT22;65739;51.482;5.702;2023-04-29T09:03:49;13.30;99.90
76787;DHT22;65739;51.482;5.702;2023-04-29T09:06:17;13.60;99.90
76787;DHT22;65739;51.482;5.702;2023-04-29T09:08:43;13.50;99.90
76787;DHT22;65739;51.482;5.702;2023-04-29T09:11:09;13.60;99.90
76787;DHT22;65739;51.482;5.702;2023-04-29T09:13:36;13.60;99.90
76787;DHT22;65739;51.482;5.702;2023-04-29T09:16:01;13.60;99.90
76787;DHT22;65739;51.482;5.702;2023-04-29T09:18:47;13.60;99.90
76787;DHT22;65739;51.482;5.702;2023-04-29T09:23:38;13.40;99.90
76787;DHT22;65739;51.482;5.702;2023-04-29T09:26:04;13.30;99.90
76787;DHT22;65739;51.482;5.702;2023-04-29T09:28:29;13.20;99.90
76787;DHT22;65739;51.482;5.702;2023-04-29T09:30:55;13.20;99.90
76787;DHT22;65739;51.482;5.702;2023-04-29T09:33:20;13.40;99.90
76787;DHT22;65739;51.482;5.702;2023-04-29T09:35:46;13.40;99.90
76787;DHT22;65739;51.482;5.702;2023-04-29T09:38:14;13.70;99.90
76787;DHT22;65739;51.482;5.702;2023-04-29T09:40:41;13.80;99.90
76787;DHT22;65739;51.482;5.702;2023-04-29T09:43:15;14.00;99.90
76787;DHT22;65739;51.482;5.702;2023-04-29T09:45:42;14.00;99.90
76787;DHT22;65739;51.482;5.702;2023-04-29T09:48:09;13.90;99.90
76787;DHT22;65739;51.482;5.702;2023-04-29T09:50:36;14.30;99.90
76787;DHT22;65739;51.482;5.702;2023-04-29T09:53:03;14.80;99.90
76787;DHT22;65739;51.482;5.702;2023-04-29T09:55:29;15.10;99.90
76787;DHT22;65739;51.482;5.702;2023-04-29T09:57:56;15.10;99.90
76787;DHT22;65739;51.482;5.702;2023-04-29T10:00:22;14.90;99.90
76787;DHT22;65739;51.482;5.702;2023-04-29T10:02:48;14.70;99.90
76787;DHT22;65739;51.482;5.702;2023-04-29T10:05:17;14.70;99.90
76787;DHT22;65739;51.482;5.702;2023-04-29T10:07:45;14.80;99.90
76787;DHT22;65739;51.482;5.702;2023-04-29T10:10:11;14.70;99.90
76787;DHT22;65739;51.482;5.702;2023-04-29T10:12:39;14.70;99.90
76787;DHT22;65739;51.482;5.702;2023-04-29T10:17:57;15.00;99.90
76787;DHT22;65739;51.482;5.702;2023-04-29T10:20:24;15.00;99.90
76787;DHT22;65739;51.482;5.702;2023-04-29T10:22:52;15.10;99.90
76787;DHT22;65739;51.482;5.702;2023-04-29T10:25:20;15.60;99.90
76787;DHT22;65739;51.482;5.702;2023-04-29T10:27:46;16.00;99.90
76787;DHT22;65739;51.482;5.702;2023-04-29T10:30:17;16.20;99.90
76787;DHT22;65739;51.482;5.702;2023-04-29T10:32:43;16.40;99.90
76787;DHT22;65739;51.482;5.702;2023-04-29T10:35:11;16.70;99.90
76787;DHT22;65739;51.482;5.702;2023-04-29T10:37:38;16.40;99.90
76787;DHT22;65739;51.482;5.702;2023-04-29T10:40:14;16.00;99.90
76787;DHT22;65739;51.482;5.702;2023-04-29T10:42:51;15.70;99.90
76787;DHT22;65739;51.482;5.702;2023-04-29T10:45:25;15.40;99.90
76787;DHT22;65739;51.482;5.702;2023-04-29T10:50:28;15.20;99.90
76787;DHT22;65739;51.482;5.702;2023-04-29T10:52:57;15.20;99.90
76787;DHT22;65739;51.482;5.702;2023-04-29T10:55:23;15.60;99.90
76787;DHT22;65739;51.482;5.702;2023-04-29T10:57:52;15.70;99.90
76787;DHT22;65739;51.482;5.702;2023-04-29T11:00:22;15.80;99.90
76787;DHT22;65739;51.482;5.702;2023-04-29T11:02:48;15.70;99.90
76787;DHT22;65739;51.482;5.702;2023-04-29T11:05:13;15.60;99.90
76787;DHT22;65739;51.482;5.702;2023-04-29T11:07:40;15.60;99.90
76787;DHT22;65739;51.482;5.702;2023-04-29T11:10:06;15.70;99.90
76787;DHT22;65739;51.482;5.702;2023-04-29T11:12:31;15.80;99.90
76787;DHT22;65739;51.482;5.702;2023-04-29T11:14:57;16.00;99.90
76787;DHT22;65739;51.482;5.702;2023-04-29T11:17:34;15.90;99.90
76787;DHT22;65739;51.482;5.702;2023-04-29T11:20:00;16.10;99.90
76787;DHT22;65739;51.482;5.702;2023-04-29T11:22:27;15.80;99.90
76787;DHT22;65739;51.482;5.702;2023-04-29T11:25:03;15.80;99.90
76787;DHT22;65739;51.482;5.702;2023-04-29T11:27:37;15.80;99.90
76787;DHT22;65739;51.482;5.702;2023-04-29T11:30:04;15.80;99.90
76787;DHT22;65739;51.482;5.702;2023-04-29T11:32:36;15.80;99.90
76787;DHT22;65739;51.482;5.702;2023-04-29T11:35:11;15.90;99.90
76787;DHT22;65739;51.482;5.702;2023-04-29T11:37:37;15.80;99.90
76787;DHT22;65739;51.482;5.702;2023-04-29T11:40:04;15.60;99.90
76787;DHT22;65739;51.482;5.702;2023-04-29T11:42:33;15.50;99.90
76787;DHT22;65739;51.482;5.702;2023-04-29T11:44:59;15.20;99.90
76787;DHT22;65739;51.482;5.702;2023-04-29T11:47:29;15.00;99.90
76787;DHT22;65739;51.482;5.702;2023-04-29T11:50:08;14.90;99.90
76787;DHT22;65739;51.482;5.702;2023-04-29T11:52:36;15.00;99.90
76787;DHT22;65739;51.482;5.702;2023-04-29T11:55:03;15.00;99.90
76787;DHT22;65739;51.482;5.702;2023-04-29T11:57:28;15.10;99.90
76787;DHT22;65739;51.482;5.702;2023-04-29T11:59:56;15.10;99.90
76787;DHT22;65739;51.482;5.702;2023-04-29T12:02:22;15.30;99.90
76787;DHT22;65739;51.482;5.702;2023-04-29T12:04:52;15.40;99.90
76787;DHT22;65739;51.482;5.702;2023-04-29T12:07:18;15.30;99.90
76787;DHT22;65739;51.482;5.702;2023-04-29T12:09:44;15.10;99.90
76787;DHT22;65739;51.482;5.702;2023-04-29T12:12:11;15.20;99.90
76787;DHT22;65739;51.482;5.702;2023-04-29T12:14:37;15.40;99.90
76787;DHT22;65739;51.482;5.702;2023-04-29T12:17:04;15.70;99.90
76787;DHT22;65739;51.482;5.702;2023-04-29T12:19:30;15.70;99.90
76787;DHT22;65739;51.482;5.702;2023-04-29T12:21:59;16.00;99.90
76787;DHT22;65739;51.482;5.702;2023-04-29T12:24:25;16.20;99.90
76787;DHT22;65739;51.482;5.702;2023-04-29T12:26:51;16.20;99.90
76787;DHT22;65739;51.482;5.702;2023-04-29T12:29:20;16.20;99.90
76787;DHT22;65739;51.482;5.702;2023-04-29T12:31:47;16.00;99.90
76787;DHT22;65739;51.482;5.702;2023-04-29T12:34:13;15.70;99.90
76787;DHT22;65739;51.482;5.702;2023-04-29T12:36:43;15.60;99.90
76787;DHT22;65739;51.482;5.702;2023-04-29T12:39:09;15.30;99.90
76787;DHT22;65739;51.482;5.702;2023-04-29T12:41:39;15.20;99.90
76787;DHT22;65739;51.482;5.702;2023-04-29T12:44:05;15.00;99.90
76787;DHT22;65739;51.482;5.702;2023-04-29T12:46:39;15.10;99.90
76787;DHT22;65739;51.482;5.702;2023-04-29T12:49:05;15.20;99.90
76787;DHT22;65739;51.482;5.702;2023-04-29T12:51:32;15.20;99.90
76787;DHT22;65739;51.482;5.702;2023-04-29T12:54:02;15.20;99.90
76787;DHT22;65739;51.482;5.702;2023-04-29T12:56:31;15.30;99.90
76787;DHT22;65739;51.482;5.702;2023-04-29T12:59:04;15.60;99.90
76787;DHT22;65739;51.482;5.702;2023-04-29T13:01:31;15.80;99.90
76787;DHT22;65739;51.482;5.702;2023-04-29T13:03:57;16.10;99.90
76787;DHT22;65739;51.482;5.702;2023-04-29T13:06:23;16.50;99.90
76787;DHT22;65739;51.482;5.702;2023-04-29T13:08:48;16.50;99.90
76787;DHT22;65739;51.482;5.702;2023-04-29T13:11:15;16.50;99.90
76787;DHT22;65739;51.482;5.702;2023-04-29T13:13:41;16.80;99.90
76787;DHT22;65739;51.482;5.702;2023-04-29T13:16:07;16.60;99.90
76787;DHT22;65739;51.482;5.702;2023-04-29T13:18:32;16.50;99.90
76787;DHT22;65739;51.482;5.702;2023-04-29T13:20:58;16.80;99.90
76787;DHT22;65739;51.482;5.702;2023-04-29T13:23:23;16.90;99.90
76787;DHT22;65739;51.482;5.702;2023-04-29T13:25:50;17.30;99.90
76787;DHT22;65739;51.482;5.702;2023-04-29T13:28:16;17.30;99.90
76787;DHT22;65739;51.482;5.702;2023-04-29T13:30:41;17.60;99.90
76787;DHT22;65739;51.482;5.702;2023-04-29T13:33:07;18.00;99.90
76787;DHT22;65739;51.482;5.702;2023-04-29T13:35:32;17.80;99.90
76787;DHT22;65739;51.482;5.702;2023-04-29T13:38:00;17.90;99.90
76787;DHT22;65739;51.482;5.702;2023-04-29T13:40:26;17.70;99.90
76787;DHT22;65739;51.482;5.702;2023-04-29T13:42:52;17.30;99.90
76787;DHT22;65739;51.482;5.702;2023-04-29T13:45:17;17.20;99.90
76787;DHT22;65739;51.482;5.702;2023-04-29T13:47:43;17.00;99.90
76787;DHT22;65739;51.482;5.702;2023-04-29T13:50:09;16.90;99.90
76787;DHT22;65739;51.482;5.702;2023-04-29T13:52:35;16.90;99.90
76787;DHT22;65739;51.482;5.702;2023-04-29T13:55:00;17.10;99.90
76787;DHT22;65739;51.482;5.702;2023-04-29T13:57:26;17.00;99.90
76787;DHT22;65739;51.482;5.702;2023-04-29T13:59:52;17.20;99.90
76787;DHT22;65739;51.482;5.702;2023-04-29T14:02:19;17.20;99.90
76787;DHT22;65739;51.482;5.702;2023-04-29T14:04:45;17.50;99.90
76787;DHT22;65739;51.482;5.702;2023-04-29T14:07:12;17.20;99.90
76787;DHT22;65739;51.482;5.702;2023-04-29T14:09:37;17.30;99.90
76787;DHT22;65739;51.482;5.702;2023-04-29T14:12:04;17.70;99.90
76787;DHT22;65739;51.482;5.702;2023-04-29T14:14:30;17.80;99.90
76787;DHT22;65739;51.482;5.702;2023-04-29T14:16:55;18.10;99.90
76787;DHT22;65739;51.482;5.702;2023-04-29T14:19:21;18.30;99.90
76787;DHT22;65739;51.482;5.702;2023-04-29T14:21:46;18.00;99.90
76787;DHT22;65739;51.482;5.702;2023-04-29T14:24:12;17.70;99.90
76787;DHT22;65739;51.482;5.702;2023-04-29T14:26:38;17.80;99.90
76787;DHT22;65739;51.482;5.702;2023-04-29T14:29:03;18.00;99.90
76787;DHT22;65739;51.482;5.702;2023-04-29T14:31:30;18.40;99.90
76787;DHT22;65739;51.482;5.702;2023-04-29T14:33:56;18.20;99.90
76787;DHT22;65739;51.482;5.702;2023-04-29T14:36:23;17.80;99.90
76787;DHT22;65739;51.482;5.702;2023-04-29T14:38:49;17.40;99.90
76787;DHT22;65739;51.482;5.702;2023-04-29T14:41:15;17.30;99.90
76787;DHT22;65739;51.482;5.702;2023-04-29T14:43:40;17.30;99.90
76787;DHT22;65739;51.482;5.702;2023-04-29T14:46:07;17.40;99.90
76787;DHT22;65739;51.482;5.702;2023-04-29T14:48:33;17.50;99.90
76787;DHT22;65739;51.482;5.702;2023-04-29T14:50:58;17.50;99.90
76787;DHT22;65739;51.482;5.702;2023-04-29T14:53:24;17.60;99.90
76787;DHT22;65739;51.482;5.702;2023-04-29T14:55:50;17.50;99.90
76787;DHT22;65739;51.482;5.702;2023-04-29T14:58:15;17.60;99.90
76787;DHT22;65739;51.482;5.702;2023-04-29T15:00:41;17.70;99.90
76787;DHT22;65739;51.482;5.702;2023-04-29T15:03:06;17.90;99.90
76787;DHT22;65739;51.482;5.702;2023-04-29T15:05:32;17.80;99.90
76787;DHT22;65739;51.482;5.702;2023-04-29T15:07:58;17.90;99.90
76787;DHT22;65739;51.482;5.702;2023-04-29T15:10:26;18.20;99.90
76787;DHT22;65739;51.482;5.702;2023-04-29T15:12:52;18.20;99.90
76787;DHT22;65739;51.482;5.702;2023-04-29T15:15:18;18.10;99.90
76787;DHT22;65739;51.482;5.702;2023-04-29T15:17:43;18.00;99.90
76787;DHT22;65739;51.482;5.702;2023-04-29T15:20:09;17.90;99.90
76787;DHT22;65739;51.482;5.702;2023-04-29T15:22:35;17.70;99.90
76787;DHT22;65739;51.482;5.702;2023-04-29T15:25:01;17.80;99.90
76787;DHT22;65739;51.482;5.702;2023-04-29T15:27:27;17.90;99.90
76787;DHT22;65739;51.482;5.702;2023-04-29T15:29:52;18.00;99.90
76787;DHT22;65739;51.482;5.702;2023-04-29T15:32:20;17.80;99.90
76787;DHT22;65739;51.482;5.702;2023-04-29T15:34:45;17.70;99.90
76787;DHT22;65739;51.482;5.702;2023-04-29T15:37:11;17.70;99.90
76787;DHT22;65739;51.482;5.702;2023-04-29T15:39:37;17.70;99.90
76787;DHT22;65739;51.482;5.702;2023-04-29T15:42:02;17.50;99.90
76787;DHT22;65739;51.482;5.702;2023-04-29T15:44:28;17.60;99.90